Time;durP1;ratioP1;P1;durP2;ratioP2;P2;SDS_P1;SDS_P2;PMS_P1;PMS_P2;Temp;Humidity;BMP_temperature;BMP_pressure;BME280_temperature;BME280_humidity;BME280_pressure;Samples;Min_cycle;Max_cycle;Signal;HPM_P1;HPM_P2
2023/06/15 00:02:17;;;;;;;5.90;3.08;;;;;;;16.50;58.32;101693.72;4951415;28;20051;-82
2023/06/15 00:04:45;;;;;;;3.33;2.80;;;;;;;16.45;58.48;101704.22;4953574;29;20042;-82
2023/06/15 00:07:10;;;;;;;5.63;3.28;;;;;;;16.39;58.95;101704.72;4951542;29;20027;-82
2023/06/15 00:09:36;;;;;;;4.75;3.50;;;;;;;16.27;59.20;101694.75;4968258;28;20039;-82
2023/06/15 00:12:01;;;;;;;5.75;3.70;;;;;;;16.24;58.33;101695.91;4952347;29;20035;-82
2023/06/15 00:14:26;;;;;;;6.60;3.90;;;;;;;16.18;58.74;101696.41;4934683;29;20489;-83
2023/06/15 00:16:52;;;;;;;4.25;3.80;;;;;;;16.15;58.72;101699.41;4966625;28;20098;-82
2023/06/15 00:19:19;;;;;;;4.18;3.58;;;;;;;16.11;58.79;101695.16;4967868;28;20092;-82
2023/06/15 00:21:47;;;;;;;6.40;4.53;;;;;;;16.07;58.62;101699.16;4952272;29;20042;-82
2023/06/15 00:24:14;;;;;;;4.30;3.22;;;;;;;16.06;58.66;101703.78;4951302;28;20477;-82
2023/06/15 00:26:40;;;;;;;5.03;3.72;;;;;;;16.00;59.11;101697.94;4934543;29;20435;-82
2023/06/15 00:29:05;;;;;;;3.90;3.50;;;;;;;15.95;59.85;101701.06;4954102;28;20066;-82
2023/06/15 00:31:31;;;;;;;5.53;3.75;;;;;;;15.91;59.62;101704.16;4967966;28;20488;-82
2023/06/15 00:33:56;;;;;;;4.00;3.60;;;;;;;15.87;60.30;101709.03;4935110;29;20027;-82
2023/06/15 00:36:22;;;;;;;3.95;3.55;;;;;;;15.87;60.51;101705.41;4951775;29;20047;-82
2023/06/15 00:38:47;;;;;;;4.97;3.70;;;;;;;15.81;61.90;101721.38;4966977;28;20491;-82
2023/06/15 00:41:13;;;;;;;6.53;3.22;;;;;;;15.77;61.17;101705.28;4950208;29;20161;-82
2023/06/15 00:43:38;;;;;;;4.57;3.63;;;;;;;15.80;61.35;101722.34;4952661;28;20459;-82
2023/06/15 00:46:04;;;;;;;5.47;3.55;;;;;;;15.77;62.07;101710.78;4949712;29;20538;-82
2023/06/15 00:48:30;;;;;;;8.18;3.50;;;;;;;15.73;61.95;101715.63;4950859;29;20342;-82
2023/06/15 00:50:56;;;;;;;5.38;3.75;;;;;;;15.68;61.33;101711.50;4951376;29;20043;-82
2023/06/15 00:53:22;;;;;;;3.88;3.45;;;;;;;15.66;61.65;101722.59;4950567;29;20026;-82
2023/06/15 00:55:48;;;;;;;4.32;3.80;;;;;;;15.62;62.36;101718.34;4952177;28;20039;-82
2023/06/15 00:58:15;;;;;;;6.25;3.90;;;;;;;15.56;62.42;101716.06;4951500;28;20450;-83
2023/06/15 01:00:41;;;;;;;4.97;3.90;;;;;;;15.52;62.08;101715.41;4950897;28;20038;-82
2023/06/15 01:03:06;;;;;;;6.50;4.53;;;;;;;15.46;62.07;101709.56;4950863;29;20035;-82
2023/06/15 01:05:35;;;;;;;5.95;4.65;;;;;;;15.41;62.33;101712.66;4946716;28;20039;-82
2023/06/15 01:08:04;;;;;;;5.43;4.47;;;;;;;15.38;61.86;101715.63;4924739;28;20648;-83
2023/06/15 01:10:32;;;;;;;7.95;4.68;;;;;;;15.39;62.37;101713.75;4951422;28;20057;-82
2023/06/15 01:13:00;;;;;;;4.00;3.60;;;;;;;15.34;62.36;101705.03;4949670;28;20100;-82
2023/06/15 01:15:26;;;;;;;5.90;4.13;;;;;;;15.32;63.48;101716.13;4951445;28;20066;-82
2023/06/15 01:17:57;;;;;;;5.07;4.20;;;;;;;15.29;63.37;101716.34;4950293;29;20042;-82
2023/06/15 01:20:44;;;;;;;4.30;3.90;;;;;;;15.33;62.27;101723.34;4950685;28;20578;-83
2023/06/15 01:23:42;;;;;;;5.50;4.18;;;;;;;15.22;63.44;101709.63;4950165;29;20542;-81
2023/06/15 01:26:10;;;;;;;4.78;4.38;;;;;;;15.19;63.94;101716.22;4965661;28;20058;-82
2023/06/15 01:28:41;;;;;;;5.18;4.38;;;;;;;15.18;63.72;101713.59;4950329;29;20581;-82
2023/06/15 01:31:09;;;;;;;9.57;4.88;;;;;;;15.11;63.47;101724.19;4965982;28;20035;-82
2023/06/15 01:33:43;;;;;;;5.53;4.35;;;;;;;15.11;62.90;101715.97;4950340;29;20475;-82
2023/06/15 01:36:09;;;;;;;7.22;5.10;;;;;;;15.06;64.04;101729.13;4934196;29;20027;-82
2023/06/15 01:38:35;;;;;;;5.88;4.25;;;;;;;14.99;65.13;101725.97;4966495;28;20074;-82
2023/06/15 01:41:01;;;;;;;6.68;4.60;;;;;;;14.95;64.76;101723.59;4933625;29;20039;-82
2023/06/15 01:43:32;;;;;;;5.93;4.82;;;;;;;14.90;64.50;101732.16;4949572;29;20036;-83
2023/06/15 01:45:59;;;;;;;8.38;5.47;;;;;;;14.79;65.13;101726.66;4950318;29;20035;-82
2023/06/15 01:48:25;;;;;;;9.48;5.40;;;;;;;14.75;66.80;101736.09;4951035;28;20038;-82
2023/06/15 01:50:51;;;;;;;5.22;4.70;;;;;;;14.70;65.64;101725.47;4950372;28;20089;-82
2023/06/15 01:53:17;;;;;;;6.65;5.78;;;;;;;14.78;65.93;101734.00;4950923;28;20130;-82
2023/06/15 01:55:43;;;;;;;6.28;4.70;;;;;;;14.78;66.40;101736.75;4951192;28;20038;-82
2023/06/15 01:58:11;;;;;;;8.27;4.68;;;;;;;14.79;65.80;101732.13;4949518;29;20114;-82
2023/06/15 02:00:36;;;;;;;10.80;4.90;;;;;;;14.71;66.92;101729.09;4949747;28;20039;-82
2023/06/15 02:03:01;;;;;;;8.13;4.97;;;;;;;14.60;67.19;101735.38;4949357;28;20384;-82
2023/06/15 02:05:28;;;;;;;7.22;5.18;;;;;;;14.62;66.01;101732.53;4950120;28;20047;-82
2023/06/15 02:07:53;;;;;;;5.35;4.85;;;;;;;14.66;67.20;101737.66;4948703;28;20126;-83
2023/06/15 02:10:19;;;;;;;8.63;5.38;;;;;;;14.63;65.94;101735.13;4950484;28;20040;-82
2023/06/15 02:12:44;;;;;;;5.85;5.22;;;;;;;14.65;66.93;101732.31;4949072;29;20513;-83
2023/06/15 02:15:17;;;;;;;7.72;4.40;;;;;;;14.58;66.48;101729.13;4950373;28;20055;-82
2023/06/15 02:17:44;;;;;;;6.80;4.97;;;;;;;14.52;66.84;101725.00;4945119;29;20046;-82
2023/06/15 02:20:11;;;;;;;10.15;5.63;;;;;;;14.51;66.70;101730.59;4946406;29;20389;-82
2023/06/15 02:22:37;;;;;;;6.85;5.07;;;;;;;14.54;67.00;101731.22;4947393;29;20122;-82
2023/06/15 02:25:03;;;;;;;8.07;5.45;;;;;;;14.50;66.79;101726.09;4950673;28;20504;-83
2023/06/15 02:27:28;;;;;;;7.43;5.72;;;;;;;14.46;68.49;101732.78;4947931;29;20039;-82
2023/06/15 02:29:55;;;;;;;6.05;5.20;;;;;;;14.41;68.20;101738.59;4949147;29;20047;-82
2023/06/15 02:32:34;;;;;;;8.38;5.70;;;;;;;14.44;67.48;101737.47;4933025;29;20031;-82
2023/06/15 02:35:08;;;;;;;7.70;5.60;;;;;;;14.41;67.79;101745.91;4950824;28;20039;-82
2023/06/15 02:37:41;;;;;;;6.28;5.50;;;;;;;14.36;68.71;101749.00;5055793;28;20430;-73
2023/06/15 02:40:08;;;;;;;8.68;6.15;;;;;;;14.33;67.79;101745.63;5059945;28;20510;-73
2023/06/15 02:42:35;;;;;;;7.05;5.75;;;;;;;14.28;68.78;101740.50;5042965;28;20083;-72
2023/06/15 02:45:02;;;;;;;7.05;5.53;;;;;;;14.23;69.35;101757.25;5059525;28;20045;-73
2023/06/15 02:47:28;;;;;;;6.43;5.82;;;;;;;14.20;69.17;101752.00;5021759;28;20076;-73
2023/06/15 02:49:55;;;;;;;7.93;6.03;;;;;;;14.19;68.93;101752.09;5039362;28;20536;-72
2023/06/15 02:52:21;;;;;;;8.95;6.03;;;;;;;14.15;69.10;101754.19;5043018;28;20120;-73
2023/06/15 02:54:47;;;;;;;6.10;5.40;;;;;;;14.11;68.74;101757.25;5043654;28;20552;-73
2023/06/15 02:57:15;;;;;;;7.30;5.72;;;;;;;14.06;68.91;101748.50;5057984;28;20049;-72
2023/06/15 02:59:53;;;;;;;9.52;5.68;;;;;;;14.01;71.14;101755.19;5041551;28;20041;-72
2023/06/15 03:02:20;;;;;;;6.53;5.13;;;;;;;13.97;70.34;101748.19;5058007;28;20033;-73
2023/06/15 03:04:50;;;;;;;9.75;5.40;;;;;;;13.98;69.75;101757.25;5042643;28;20052;-73
2023/06/15 03:07:20;;;;;;;6.03;5.43;;;;;;;13.95;69.97;101749.31;5025809;28;20121;-73
2023/06/15 03:10:18;;;;;;;9.93;5.72;;;;;;;13.96;69.43;101754.66;5030852;28;20052;-72
2023/06/15 03:12:45;;;;;;;10.73;6.72;;;;;;;13.95;69.90;101752.03;5041395;28;20558;-72
2023/06/15 03:15:10;;;;;;;7.22;6.03;;;;;;;13.93;70.19;101752.13;5041302;28;20025;-72
2023/06/15 03:17:39;;;;;;;10.05;6.03;;;;;;;13.94;69.91;101761.19;5042022;28;20162;-73
2023/06/15 03:20:10;;;;;;;11.52;6.05;;;;;;;13.93;69.38;101760.34;5042796;28;20037;-73
2023/06/15 03:22:36;;;;;;;5.90;5.10;;;;;;;13.94;69.10;101753.00;5043209;28;20528;-73
2023/06/15 03:25:03;;;;;;;6.60;5.85;;;;;;;13.94;69.08;101753.91;5058380;28;20032;-73
2023/06/15 03:27:29;;;;;;;8.57;5.75;;;;;;;13.93;69.28;101759.47;5048014;28;20030;-73
2023/06/15 03:29:56;;;;;;;7.15;5.75;;;;;;;13.93;69.09;101760.34;5018461;28;20520;-73
2023/06/15 03:32:22;;;;;;;7.00;6.28;;;;;;;13.91;69.53;101762.31;5019047;28;20553;-72
2023/06/15 03:34:47;;;;;;;6.30;5.70;;;;;;;13.91;69.63;101755.97;5004012;28;20161;-72
2023/06/15 03:37:13;;;;;;;7.68;5.93;;;;;;;13.89;69.35;101758.78;5018223;28;20137;-73
2023/06/15 03:39:42;;;;;;;7.30;5.65;;;;;;;13.88;69.94;101759.78;5001871;28;20135;-73
2023/06/15 03:42:07;;;;;;;10.75;5.80;;;;;;;13.87;70.93;101757.19;5001726;28;20029;-73
2023/06/15 03:44:33;;;;;;;14.32;6.60;;;;;;;13.84;70.48;101754.66;5008393;28;20379;-72
2023/06/15 03:46:58;;;;;;;9.63;7.35;;;;;;;13.82;70.97;101762.97;5000852;28;20607;-73
2023/06/15 03:49:24;;;;;;;7.90;6.72;;;;;;;13.84;70.64;101754.66;5004941;28;20046;-73
2023/06/15 03:51:49;;;;;;;7.32;6.32;;;;;;;13.82;70.70;101751.16;5004915;28;20431;-73
2023/06/15 03:54:15;;;;;;;9.27;6.00;;;;;;;13.83;70.29;101753.78;5005254;28;20036;-73
2023/06/15 03:56:41;;;;;;;11.55;6.53;;;;;;;13.85;70.57;101759.13;4989558;28;20413;-72
2023/06/15 03:59:06;;;;;;;12.50;6.40;;;;;;;13.89;70.25;101756.06;5004796;28;20111;-73
2023/06/15 04:01:32;;;;;;;8.00;5.63;;;;;;;13.89;69.73;101753.31;4990175;28;20034;-73
2023/06/15 04:03:58;;;;;;;7.60;5.72;;;;;;;13.91;70.38;101761.44;5004947;28;20540;-73
2023/06/15 04:06:24;;;;;;;13.77;6.65;;;;;;;13.92;69.94;101761.31;4989755;28;20030;-73
2023/06/15 04:08:50;;;;;;;6.88;5.97;;;;;;;13.95;70.07;101768.44;5005240;28;20164;-73
2023/06/15 04:11:16;;;;;;;8.93;5.90;;;;;;;13.95;71.78;101771.19;5003811;28;20054;-73
2023/06/15 04:13:42;;;;;;;7.45;6.13;;;;;;;13.96;70.23;101767.47;5004084;28;20132;-73
2023/06/15 04:16:07;;;;;;;9.32;6.50;;;;;;;13.96;71.82;101768.34;5005368;28;20030;-73
2023/06/15 04:18:33;;;;;;;8.88;6.03;;;;;;;14.02;70.43;101776.09;5004402;28;20038;-72
2023/06/15 04:20:59;;;;;;;7.60;6.13;;;;;;;14.05;70.84;101772.28;5004270;28;20461;-73
2023/06/15 04:23:25;;;;;;;7.93;5.88;;;;;;;14.09;70.94;101778.41;5004844;28;20038;-73
2023/06/15 04:25:51;;;;;;;6.60;6.00;;;;;;;14.15;70.70;101775.22;5003315;28;20046;-73
2023/06/15 04:28:16;;;;;;;6.75;5.53;;;;;;;14.17;71.67;101775.97;4989311;28;20096;-73
2023/06/15 04:30:46;;;;;;;8.30;6.18;;;;;;;14.19;71.37;101783.09;5004035;28;20561;-73
2023/06/15 04:33:15;;;;;;;6.57;5.93;;;;;;;14.22;71.26;101779.22;5004854;28;20243;-73
2023/06/15 04:35:45;;;;;;;12.18;6.00;;;;;;;14.26;71.58;101783.50;4987972;28;20582;-73
2023/06/15 04:38:12;;;;;;;7.65;5.28;;;;;;;14.32;70.59;101783.06;4987171;28;20117;-73
2023/06/15 04:40:39;;;;;;;7.70;5.28;;;;;;;14.40;72.42;101788.84;5004788;28;20100;-72
2023/06/15 04:43:04;;;;;;;6.57;5.88;;;;;;;14.42;72.44;101786.88;4987344;28;20065;-72
2023/06/15 04:45:31;;;;;;;10.30;6.68;;;;;;;14.46;71.39;101790.28;5004191;28;20038;-73
2023/06/15 04:47:57;;;;;;;6.93;5.78;;;;;;;14.47;71.13;101790.16;5004528;28;20461;-73
2023/06/15 04:50:23;;;;;;;11.20;5.85;;;;;;;14.51;70.94;101794.44;5003924;28;20031;-73
2023/06/15 04:52:48;;;;;;;10.23;6.13;;;;;;;14.56;70.80;101793.25;5004613;28;20030;-72
2023/06/15 04:55:14;;;;;;;6.80;5.47;;;;;;;14.61;71.28;101799.25;4988508;28;20398;-73
2023/06/15 04:57:40;;;;;;;7.80;6.28;;;;;;;14.63;71.32;101803.59;5002993;28;20068;-72
2023/06/15 05:00:08;;;;;;;8.00;6.60;;;;;;;14.68;70.30;101798.66;4971016;28;20050;-73
2023/06/15 05:02:39;;;;;;;10.23;6.72;;;;;;;14.74;70.44;101803.69;5003932;28;20053;-73
2023/06/15 05:05:05;;;;;;;9.68;7.60;;;;;;;14.79;69.96;101806.97;5004416;28;20034;-73
2023/06/15 05:07:31;;;;;;;10.40;7.13;;;;;;;14.85;70.14;101797.41;5003101;28;20030;-73
2023/06/15 05:09:56;;;;;;;8.95;7.25;;;;;;;14.91;69.99;101805.16;5005619;28;20041;-73
2023/06/15 05:12:25;;;;;;;7.97;6.85;;;;;;;14.97;70.23;101801.97;5021845;28;20033;-72
2023/06/15 05:14:50;;;;;;;12.23;7.40;;;;;;;15.02;70.07;101813.47;5023295;28;20048;-73
2023/06/15 05:17:16;;;;;;;11.50;7.38;;;;;;;15.05;70.62;101810.47;5018461;28;20027;-72
2023/06/15 05:19:42;;;;;;;11.32;7.80;;;;;;;15.15;70.77;101818.00;5003904;28;20030;-72
2023/06/15 05:22:07;;;;;;;14.90;8.18;;;;;;;15.21;69.77;101807.44;5004291;28;20037;-73
2023/06/15 05:24:35;;;;;;;12.02;7.93;;;;;;;15.29;69.39;101802.25;5003967;28;20038;-72
2023/06/15 05:27:02;;;;;;;13.80;10.82;;;;;;;15.37;72.55;101796.16;4987919;28;20037;-73
2023/06/15 05:29:28;;;;;;;11.23;8.43;;;;;;;15.48;70.71;101807.19;5015805;28;20045;-72
2023/06/15 05:31:55;;;;;;;9.48;8.55;;;;;;;15.55;69.65;101807.56;4986698;28;20030;-72
2023/06/15 05:34:21;;;;;;;11.23;8.98;;;;;;;15.64;68.17;101808.75;5003324;28;20038;-73
2023/06/15 05:36:47;;;;;;;12.48;10.80;;;;;;;15.73;69.65;101814.41;5003011;28;20135;-73
2023/06/15 05:39:12;;;;;;;12.02;10.10;;;;;;;15.81;69.38;101809.19;5003133;28;20494;-72
2023/06/15 05:41:38;;;;;;;17.60;12.00;;;;;;;15.86;70.55;101814.31;5003482;28;20123;-73
2023/06/15 05:44:04;;;;;;;16.95;11.32;;;;;;;15.94;68.33;101814.53;5003023;28;20066;-73
2023/06/15 05:46:29;;;;;;;15.52;11.60;;;;;;;16.01;68.99;101813.06;4986885;28;20145;-72
2023/06/15 05:48:54;;;;;;;18.20;11.70;;;;;;;16.08;69.46;101819.81;5003112;28;20049;-73
2023/06/15 05:51:20;;;;;;;16.45;12.82;;;;;;;16.16;71.12;101819.19;5003126;28;20132;-72
2023/06/15 05:53:45;;;;;;;16.17;11.05;;;;;;;16.23;69.32;101816.84;5002933;28;20037;-72
2023/06/15 05:56:11;;;;;;;12.90;11.55;;;;;;;16.29;69.71;101816.34;4987191;28;20406;-72
2023/06/15 05:58:37;;;;;;;17.50;13.43;;;;;;;16.36;70.31;101817.56;5002746;28;20117;-72
2023/06/15 06:01:03;;;;;;;15.70;12.60;;;;;;;16.46;69.96;101820.44;4986845;28;20070;-73
2023/06/15 06:03:28;;;;;;;15.20;12.93;;;;;;;16.52;68.73;101817.22;4986818;28;20108;-72
2023/06/15 06:05:54;;;;;;;18.95;12.85;;;;;;;16.59;68.55;101807.47;4988096;28;20042;-72
2023/06/15 06:08:21;;;;;;;15.75;14.15;;;;;;;16.66;68.56;101814.22;4987983;28;20038;-73
2023/06/15 06:10:46;;;;;;;17.38;12.38;;;;;;;16.74;67.88;101817.22;4985927;28;20074;-72
2023/06/15 06:13:26;;;;;;;19.23;13.90;;;;;;;16.80;68.59;101819.47;5002650;28;20030;-72
2023/06/15 06:15:52;;;;;;;20.75;15.63;;;;;;;16.86;67.61;101815.31;5002626;28;20121;-72
2023/06/15 06:18:17;;;;;;;20.63;13.65;;;;;;;16.94;66.57;101810.06;5003885;28;20510;-72
2023/06/15 06:20:42;;;;;;;17.88;14.90;;;;;;;17.03;66.53;101813.91;4988004;28;20505;-72
2023/06/15 06:23:08;;;;;;;17.88;13.45;;;;;;;17.09;65.32;101813.38;4987939;28;20033;-72
2023/06/15 06:25:34;;;;;;;23.10;15.00;;;;;;;17.19;66.48;101811.59;5002216;28;20038;-72
2023/06/15 06:28:00;;;;;;;19.27;15.10;;;;;;;17.30;66.24;101813.47;4985361;28;20034;-72
2023/06/15 06:30:26;;;;;;;19.38;14.88;;;;;;;17.39;66.90;101811.78;4987171;28;20034;-72
2023/06/15 06:32:51;;;;;;;19.42;14.80;;;;;;;17.45;67.51;101817.63;4998530;28;20026;-72
2023/06/15 06:35:16;;;;;;;23.33;13.60;;;;;;;17.52;66.32;101805.06;4988372;28;20141;-72
2023/06/15 06:37:42;;;;;;;17.00;14.05;;;;;;;17.61;64.93;101811.66;4988001;28;20196;-72
2023/06/15 06:40:08;;;;;;;22.02;13.02;;;;;;;17.69;64.26;101811.88;4988208;28;20038;-72
2023/06/15 06:42:34;;;;;;;22.45;13.18;;;;;;;17.79;65.77;101815.59;4986688;28;20043;-72
2023/06/15 06:45:00;;;;;;;19.15;14.13;;;;;;;17.87;65.23;101816.81;4986401;28;20486;-72
2023/06/15 06:47:25;;;;;;;22.20;16.52;;;;;;;17.96;65.18;101816.88;4987687;28;20089;-72
2023/06/15 06:49:52;;;;;;;21.65;15.10;;;;;;;18.03;64.33;101815.31;4987390;28;20026;-73
2023/06/15 06:52:17;;;;;;;26.63;15.32;;;;;;;18.13;64.74;101817.25;4985873;28;20041;-72
2023/06/15 06:54:43;;;;;;;23.65;15.27;;;;;;;18.20;64.87;101821.22;4987353;28;20053;-72
2023/06/15 06:57:08;;;;;;;332.88;36.05;;;;;;;18.44;75.19;101827.28;4995083;28;20101;-72
2023/06/15 06:59:33;;;;;;;21.65;15.95;;;;;;;18.40;66.08;101822.19;5006250;28;20088;-72
2023/06/15 07:01:59;;;;;;;24.50;15.95;;;;;;;18.48;65.10;101822.38;4988502;28;20057;-71
2023/06/15 07:04:24;;;;;;;24.80;15.25;;;;;;;18.54;64.51;101822.69;4987415;28;20050;-72
2023/06/15 07:06:49;;;;;;;21.80;15.18;;;;;;;18.62;64.55;101816.47;4987471;28;20245;-72
2023/06/15 07:09:15;;;;;;;20.05;13.95;;;;;;;18.70;62.32;101816.69;4987433;28;20512;-72
2023/06/15 07:11:40;;;;;;;21.30;13.23;;;;;;;18.78;61.17;101818.72;4986622;28;20022;-72
2023/06/15 07:14:05;;;;;;;15.57;11.63;;;;;;;18.88;62.23;101818.75;4985885;28;20042;-72
2023/06/15 07:16:31;;;;;;;20.88;14.02;;;;;;;19.00;59.85;101820.38;4987060;28;20054;-72
2023/06/15 07:18:57;;;;;;;16.70;13.30;;;;;;;19.10;60.69;101824.03;4987749;28;20348;-72
2023/06/15 07:21:23;;;;;;;17.60;12.57;;;;;;;19.19;60.36;101820.41;4987088;28;20433;-72
2023/06/15 07:23:48;;;;;;;17.52;12.27;;;;;;;19.27;60.17;101820.56;4987866;28;20168;-72
2023/06/15 07:26:13;;;;;;;16.30;12.52;;;;;;;19.37;60.33;101820.56;4990525;28;20061;-72
2023/06/15 07:28:39;;;;;;;16.23;11.25;;;;;;;19.48;59.71;101814.03;4990603;28;20141;-72
2023/06/15 07:31:04;;;;;;;14.23;10.48;;;;;;;19.59;58.40;101819.41;5005355;28;20034;-72
2023/06/15 07:33:29;;;;;;;12.07;10.60;;;;;;;19.68;57.56;101821.34;5005681;28;20053;-72
2023/06/15 07:35:55;;;;;;;12.75;10.63;;;;;;;19.76;58.48;101826.09;4990515;28;20058;-72
2023/06/15 07:38:20;;;;;;;15.45;11.23;;;;;;;19.81;57.89;101823.78;4990922;28;20094;-72
2023/06/15 07:40:45;;;;;;;16.73;10.75;;;;;;;19.89;56.94;101826.69;4990069;28;20124;-72
2023/06/15 07:43:11;;;;;;;13.50;9.43;;;;;;;19.99;57.93;101832.19;4989859;28;20056;-71
2023/06/15 07:45:36;;;;;;;13.32;8.10;;;;;;;20.05;55.83;101826.94;4991562;28;20054;-72
2023/06/15 07:48:03;;;;;;;13.50;8.27;;;;;;;20.16;55.42;101822.25;4990569;28;20048;-72
2023/06/15 07:50:28;;;;;;;13.27;8.98;;;;;;;20.26;55.26;101817.56;4990987;28;20448;-72
2023/06/15 07:52:54;;;;;;;10.90;7.45;;;;;;;20.37;54.55;101812.72;4990852;28;20034;-72
2023/06/15 07:55:20;;;;;;;10.75;7.47;;;;;;;20.52;55.21;101813.16;4990220;28;20040;-71
2023/06/15 07:57:45;;;;;;;13.55;7.00;;;;;;;20.68;54.87;101814.38;5004784;28;20041;-72
2023/06/15 08:00:11;;;;;;;14.35;6.90;;;;;;;20.78;54.05;101813.28;4990087;28;20517;-72
2023/06/15 08:02:36;;;;;;;9.20;5.88;;;;;;;20.92;54.14;101822.97;4991684;28;20116;-71
2023/06/15 08:05:02;;;;;;;8.80;5.60;;;;;;;21.05;51.24;101819.84;4990442;28;20154;-72
2023/06/15 08:07:28;;;;;;;12.05;5.53;;;;;;;21.22;50.52;101827.31;4990419;28;20070;-72
2023/06/15 08:09:54;;;;;;;6.78;4.65;;;;;;;21.51;49.70;101820.69;5005001;28;20038;-72
2023/06/15 08:12:19;;;;;;;9.73;4.90;;;;;;;22.31;50.32;101824.28;4989634;28;20035;-72
2023/06/15 08:14:45;;;;;;;10.02;4.88;;;;;;;22.77;48.98;101825.72;4989469;28;20073;-71
2023/06/15 08:17:10;;;;;;;5.85;3.83;;;;;;;23.60;47.21;101817.47;4990084;28;20442;-71
2023/06/15 08:19:36;;;;;;;7.00;3.95;;;;;;;24.37;43.99;101817.09;4990844;28;20065;-72
2023/06/15 08:22:02;;;;;;;6.50;3.97;;;;;;;24.63;42.38;101814.06;5004434;28;20057;-72
2023/06/15 08:24:28;;;;;;;7.82;3.97;;;;;;;24.73;40.66;101814.72;5008800;28;20026;-72
2023/06/15 08:26:54;;;;;;;7.88;4.53;;;;;;;24.83;41.01;101820.06;5008438;28;20394;-72
2023/06/15 08:29:19;;;;;;;10.23;4.28;;;;;;;25.07;40.63;101819.97;5008576;28;20038;-72
2023/06/15 08:31:45;;;;;;;10.70;3.42;;;;;;;25.47;36.94;101819.91;5000308;28;20038;-72
2023/06/15 08:34:10;;;;;;;7.90;4.05;;;;;;;26.07;39.40;101817.16;4990477;28;20030;-71
2023/06/15 08:36:37;;;;;;;7.72;3.65;;;;;;;26.56;37.60;101821.34;4989860;28;20054;-72
2023/06/15 08:39:05;;;;;;;8.15;3.97;;;;;;;27.10;36.00;101816.31;4989235;28;20121;-71
2023/06/15 08:41:31;;;;;;;5.65;3.83;;;;;;;27.45;34.66;101817.34;4988890;28;20501;-71
2023/06/15 08:43:57;;;;;;;5.15;3.22;;;;;;;27.49;34.09;101814.16;4988879;28;20050;-72
2023/06/15 08:46:26;;;;;;;7.07;3.40;;;;;;;27.92;35.26;101810.28;4988202;28;20038;-71
2023/06/15 08:48:53;;;;;;;6.82;3.20;;;;;;;28.23;34.82;101814.63;5001320;28;20038;-71
2023/06/15 08:51:22;;;;;;;7.93;3.78;;;;;;;28.66;35.32;101806.97;4989423;28;20049;-72
2023/06/15 08:53:48;;;;;;;4.10;3.58;;;;;;;29.00;33.46;101812.75;4989063;28;20041;-71
2023/06/15 08:56:14;;;;;;;10.25;3.88;;;;;;;29.03;32.70;101807.59;4988085;28;20446;-71
2023/06/15 08:58:40;;;;;;;6.43;3.65;;;;;;;28.85;31.89;101810.94;4989366;28;20060;-71
2023/06/15 09:01:07;;;;;;;5.68;3.67;;;;;;;28.82;32.85;101811.38;4989557;28;20050;-71
2023/06/15 09:03:36;;;;;;;5.53;3.33;;;;;;;28.75;32.70;101806.78;4989695;28;20038;-71
2023/06/15 09:06:02;;;;;;;9.38;4.22;;;;;;;28.35;31.13;101807.44;4989326;28;20029;-71
2023/06/15 09:08:28;;;;;;;5.53;3.28;;;;;;;28.54;33.78;101804.94;5000348;28;20037;-71
2023/06/15 09:11:07;;;;;;;6.95;3.83;;;;;;;28.77;32.21;101807.44;5007504;28;20037;-71
2023/06/15 09:13:33;;;;;;;7.05;3.60;;;;;;;29.09;31.33;101797.47;5007904;28;20038;-71
2023/06/15 09:16:00;;;;;;;5.30;3.50;;;;;;;29.12;31.42;101808.28;5008140;28;20068;-71
2023/06/15 09:18:26;;;;;;;6.55;3.53;;;;;;;29.05;30.37;101811.06;4995956;28;20068;-71
2023/06/15 09:20:52;;;;;;;7.50;3.50;;;;;;;29.19;29.27;101801.63;4988991;28;20046;-71
2023/06/15 09:23:18;;;;;;;5.38;3.10;;;;;;;29.47;31.39;101795.88;4988912;28;20042;-72
2023/06/15 09:25:56;;;;;;;8.75;4.20;;;;;;;29.48;29.83;101810.75;4988154;28;20026;-70
2023/06/15 09:28:26;;;;;;;6.47;3.60;;;;;;;29.79;31.03;101800.88;4988385;28;20042;-71
2023/06/15 09:30:59;;;;;;;9.35;4.30;;;;;;;29.65;30.00;101798.06;4988038;28;20038;-71
2023/06/15 09:33:25;;;;;;;4.72;3.55;;;;;;;29.97;31.00;101804.75;4989151;28;20053;-71
2023/06/15 09:36:00;;;;;;;6.13;3.60;;;;;;;30.03;30.25;101800.25;4987933;28;20214;-72
2023/06/15 09:38:48;;;;;;;9.85;4.25;;;;;;;30.45;29.86;101807.34;4988584;28;20442;-71
2023/06/15 09:41:14;;;;;;;12.50;3.95;;;;;;;30.28;26.77;101811.69;4987469;28;20096;-71
2023/06/15 09:43:40;;;;;;;7.13;3.58;;;;;;;30.28;28.83;101799.59;4988814;28;20097;-71
2023/06/15 09:46:13;;;;;;;8.70;3.75;;;;;;;30.65;27.86;101798.88;4988334;28;20049;-71
2023/06/15 09:48:40;;;;;;;6.97;3.50;;;;;;;30.87;28.11;101795.78;4989019;28;20042;-71
2023/06/15 09:51:06;;;;;;;6.22;3.63;;;;;;;30.55;28.72;101801.28;4988595;28;20026;-71
2023/06/15 09:53:31;;;;;;;6.60;3.97;;;;;;;30.49;28.50;101790.91;4988771;28;20088;-71
2023/06/15 09:56:00;;;;;;;8.45;3.90;;;;;;;30.56;28.23;101793.72;4987111;28;20478;-71
2023/06/15 09:58:26;;;;;;;5.47;3.70;;;;;;;30.91;27.63;101788.63;5006049;28;20109;-71
2023/06/15 10:00:57;;;;;;;5.20;3.67;;;;;;;31.50;29.58;101796.75;4989213;28;20049;-71
2023/06/15 10:03:24;;;;;;;13.68;4.00;;;;;;;31.69;28.15;101800.50;4986382;28;20042;-71
2023/06/15 10:05:55;;;;;;;6.65;3.90;;;;;;;31.84;26.52;101790.91;4987789;28;20026;-71
2023/06/15 10:08:26;;;;;;;10.60;4.18;;;;;;;32.42;25.75;101796.25;4988146;28;20041;-71
2023/06/15 10:10:55;;;;;;;7.45;3.38;;;;;;;32.53;26.91;101797.41;4986942;28;20451;-71
2023/06/15 10:13:42;;;;;;;8.40;3.88;;;;;;;32.74;26.93;101792.19;4987629;28;20038;-71
2023/06/15 10:16:10;;;;;;;7.25;3.72;;;;;;;33.03;24.88;101798.13;4987972;28;20038;-71
2023/06/15 10:18:36;;;;;;;5.60;3.70;;;;;;;33.11;24.90;101795.00;4988690;28;20645;-71
2023/06/15 10:21:05;;;;;;;7.53;3.60;;;;;;;33.14;25.79;101790.81;4987814;28;20163;-71
2023/06/15 10:23:31;;;;;;;6.40;3.95;;;;;;;32.75;23.69;101793.91;4987964;28;20506;-71
2023/06/15 10:25:58;;;;;;;7.95;4.10;;;;;;;32.85;25.17;101795.31;5001908;28;20065;-71
2023/06/15 10:28:28;;;;;;;6.15;3.47;;;;;;;32.88;27.13;101798.53;4986860;28;20054;-71
2023/06/15 10:31:16;;;;;;;9.05;3.90;;;;;;;33.20;25.85;101798.31;4987521;28;20046;-71
2023/06/15 10:34:03;;;;;;;8.50;3.60;;;;;;;33.35;25.36;101798.78;4988232;28;20483;-70
2023/06/15 10:36:41;;;;;;;3.88;3.47;;;;;;;33.59;25.98;101788.44;4986132;28;20046;-71
2023/06/15 10:39:13;;;;;;;5.50;3.67;;;;;;;33.12;23.09;101796.72;5000689;28;20434;-71
2023/06/15 10:41:39;;;;;;;6.20;4.18;;;;;;;32.52;22.50;101792.88;4987624;28;20073;-71
2023/06/15 10:44:05;;;;;;;6.10;3.72;;;;;;;32.14;24.22;101796.72;5001978;28;20073;-71
2023/06/15 10:46:35;;;;;;;5.22;3.40;;;;;;;31.73;26.02;101801.78;4987318;28;20033;-71
2023/06/15 10:49:05;;;;;;;8.07;3.72;;;;;;;30.96;23.75;101803.75;4987714;28;20038;-71
2023/06/15 10:51:41;;;;;;;4.70;3.75;;;;;;;30.11;26.35;101802.81;4987200;28;20077;-71
2023/06/15 10:54:25;;;;;;;7.60;3.63;;;;;;;30.01;30.21;101805.19;4988332;28;20038;-71
2023/06/15 10:56:53;;;;;;;7.63;3.72;;;;;;;29.88;28.88;101800.44;4986181;28;20090;-71
2023/06/15 10:59:41;;;;;;;9.13;4.78;;;;;;;29.56;27.85;101798.47;4989979;28;20053;-71
2023/06/15 11:02:28;;;;;;;10.85;3.88;;;;;;;29.49;29.82;101792.84;4991962;28;20448;-71
2023/06/15 11:05:17;;;;;;;9.27;4.25;;;;;;;30.08;30.22;101794.84;4991020;28;20042;-71
2023/06/15 11:07:46;;;;;;;5.32;3.53;;;;;;;30.83;29.21;101791.72;4991522;28;20042;-71
2023/06/15 11:10:14;;;;;;;6.45;4.60;;;;;;;31.33;28.30;101791.88;4990601;28;20069;-70
2023/06/15 11:12:41;;;;;;;7.50;4.10;;;;;;;31.45;26.41;101804.16;4991144;28;20026;-71
2023/06/15 11:15:09;;;;;;;8.20;4.10;;;;;;;31.87;25.76;101787.63;4991235;28;20494;-71
2023/06/15 11:17:52;;;;;;;6.90;3.92;;;;;;;32.24;27.78;101791.41;4991483;28;20490;-71
2023/06/15 11:20:52;;;;;;;9.32;3.70;;;;;;;32.54;26.23;101787.88;4990694;28;20074;-70
2023/06/15 11:23:19;;;;;;;7.95;3.75;;;;;;;32.81;25.54;101791.22;4991071;28;20363;-71
2023/06/15 11:25:54;;;;;;;7.88;3.80;;;;;;;33.37;25.29;101785.28;5005453;28;20056;-71